sensor_id;sensor_type;location;lat;lon;timestamp;P1;durP1;ratioP1;P2;durP2;ratioP2
33347;SDS011;19707;51.158;17.124;2022-09-09T00:01:58;14.65;;;12.15;;
33347;SDS011;19707;51.158;17.124;2022-09-09T00:05:25;13.53;;;10.93;;
33347;SDS011;19707;51.158;17.124;2022-09-09T00:08:53;15.93;;;13.55;;
33347;SDS011;19707;51.158;17.124;2022-09-09T00:15:57;15.78;;;12.35;;
33347;SDS011;19707;51.158;17.124;2022-09-09T00:19:12;14.23;;;11.15;;
33347;SDS011;19707;51.158;17.124;2022-09-09T00:22:23;12.60;;;11.28;;
33347;SDS011;19707;51.158;17.124;2022-09-09T00:28:37;14.90;;;11.08;;
33347;SDS011;19707;51.158;17.124;2022-09-09T00:31:44;15.90;;;12.25;;
33347;SDS011;19707;51.158;17.124;2022-09-09T00:34:59;16.17;;;10.63;;
33347;SDS011;19707;51.158;17.124;2022-09-09T00:38:09;15.63;;;10.88;;
33347;SDS011;19707;51.158;17.124;2022-09-09T00:44:50;13.00;;;9.63;;
33347;SDS011;19707;51.158;17.124;2022-09-09T00:48:22;14.90;;;10.55;;
33347;SDS011;19707;51.158;17.124;2022-09-09T00:51:32;11.60;;;10.45;;
33347;SDS011;19707;51.158;17.124;2022-09-09T00:58:21;13.80;;;9.58;;
33347;SDS011;19707;51.158;17.124;2022-09-09T01:01:23;11.85;;;10.63;;
33347;SDS011;19707;51.158;17.124;2022-09-09T01:04:27;11.53;;;10.03;;
33347;SDS011;19707;51.158;17.124;2022-09-09T01:07:34;12.68;;;9.65;;
33347;SDS011;19707;51.158;17.124;2022-09-09T01:10:46;11.12;;;9.88;;
33347;SDS011;19707;51.158;17.124;2022-09-09T01:13:58;13.08;;;8.93;;
33347;SDS011;19707;51.158;17.124;2022-09-09T01:17:03;10.32;;;9.18;;
33347;SDS011;19707;51.158;17.124;2022-09-09T01:20:24;9.83;;;8.08;;
33347;SDS011;19707;51.158;17.124;2022-09-09T01:26:54;12.98;;;10.68;;
33347;SDS011;19707;51.158;17.124;2022-09-09T01:30:00;12.23;;;10.68;;
33347;SDS011;19707;51.158;17.124;2022-09-09T01:33:01;9.43;;;8.53;;
33347;SDS011;19707;51.158;17.124;2022-09-09T01:39:22;10.15;;;9.05;;
33347;SDS011;19707;51.158;17.124;2022-09-09T01:42:24;11.90;;;10.03;;
33347;SDS011;19707;51.158;17.124;2022-09-09T01:45:26;11.33;;;9.03;;
33347;SDS011;19707;51.158;17.124;2022-09-09T01:48:28;10.60;;;8.25;;
33347;SDS011;19707;51.158;17.124;2022-09-09T01:51:30;9.85;;;8.58;;
33347;SDS011;19707;51.158;17.124;2022-09-09T01:54:32;10.10;;;8.75;;
33347;SDS011;19707;51.158;17.124;2022-09-09T01:58:01;10.18;;;8.33;;
33347;SDS011;19707;51.158;17.124;2022-09-09T02:01:22;10.85;;;9.23;;
33347;SDS011;19707;51.158;17.124;2022-09-09T02:04:43;11.05;;;7.67;;
33347;SDS011;19707;51.158;17.124;2022-09-09T02:11:15;9.05;;;7.67;;
33347;SDS011;19707;51.158;17.124;2022-09-09T02:14:23;9.00;;;8.10;;
33347;SDS011;19707;51.158;17.124;2022-09-09T02:17:32;10.60;;;8.53;;
33347;SDS011;19707;51.158;17.124;2022-09-09T02:20:36;11.88;;;8.58;;
33347;SDS011;19707;51.158;17.124;2022-09-09T02:23:40;10.60;;;8.03;;
33347;SDS011;19707;51.158;17.124;2022-09-09T02:26:44;10.43;;;9.43;;
33347;SDS011;19707;51.158;17.124;2022-09-09T02:29:47;9.88;;;8.08;;
33347;SDS011;19707;51.158;17.124;2022-09-09T02:32:51;9.73;;;8.78;;
33347;SDS011;19707;51.158;17.124;2022-09-09T02:35:56;10.03;;;9.03;;
33347;SDS011;19707;51.158;17.124;2022-09-09T02:39:01;9.60;;;8.65;;
33347;SDS011;19707;51.158;17.124;2022-09-09T02:42:04;12.55;;;9.03;;
33347;SDS011;19707;51.158;17.124;2022-09-09T02:45:06;11.65;;;9.28;;
33347;SDS011;19707;51.158;17.124;2022-09-09T02:54:57;9.18;;;8.25;;
33347;SDS011;19707;51.158;17.124;2022-09-09T02:58:04;8.93;;;7.83;;
33347;SDS011;19707;51.158;17.124;2022-09-09T03:01:09;9.08;;;8.28;;
33347;SDS011;19707;51.158;17.124;2022-09-09T03:04:11;10.95;;;8.83;;
33347;SDS011;19707;51.158;17.124;2022-09-09T03:07:12;11.50;;;8.03;;
33347;SDS011;19707;51.158;17.124;2022-09-09T03:10:15;17.30;;;8.98;;
33347;SDS011;19707;51.158;17.124;2022-09-09T03:13:18;9.98;;;8.93;;
33347;SDS011;19707;51.158;17.124;2022-09-09T03:16:20;8.30;;;7.50;;
33347;SDS011;19707;51.158;17.124;2022-09-09T03:19:21;10.40;;;9.03;;
33347;SDS011;19707;51.158;17.124;2022-09-09T03:22:23;9.15;;;8.05;;
33347;SDS011;19707;51.158;17.124;2022-09-09T03:25:25;11.43;;;8.00;;
33347;SDS011;19707;51.158;17.124;2022-09-09T03:28:27;9.28;;;8.38;;
33347;SDS011;19707;51.158;17.124;2022-09-09T03:31:30;11.90;;;9.25;;
33347;SDS011;19707;51.158;17.124;2022-09-09T03:34:31;15.23;;;8.45;;
33347;SDS011;19707;51.158;17.124;2022-09-09T03:37:33;13.30;;;8.55;;
33347;SDS011;19707;51.158;17.124;2022-09-09T03:40:35;9.03;;;8.20;;
33347;SDS011;19707;51.158;17.124;2022-09-09T03:43:36;9.73;;;8.43;;
33347;SDS011;19707;51.158;17.124;2022-09-09T03:46:38;13.25;;;8.40;;
33347;SDS011;19707;51.158;17.124;2022-09-09T03:49:39;11.25;;;8.30;;
33347;SDS011;19707;51.158;17.124;2022-09-09T03:52:41;10.48;;;7.58;;
33347;SDS011;19707;51.158;17.124;2022-09-09T03:55:45;9.18;;;7.53;;
33347;SDS011;19707;51.158;17.124;2022-09-09T03:58:49;9.58;;;8.68;;
33347;SDS011;19707;51.158;17.124;2022-09-09T04:01:50;8.75;;;8.03;;
33347;SDS011;19707;51.158;17.124;2022-09-09T04:04:52;8.48;;;7.78;;
33347;SDS011;19707;51.158;17.124;2022-09-09T04:07:53;8.83;;;8.03;;
33347;SDS011;19707;51.158;17.124;2022-09-09T04:10:54;9.60;;;8.70;;
33347;SDS011;19707;51.158;17.124;2022-09-09T04:13:59;7.87;;;6.97;;
33347;SDS011;19707;51.158;17.124;2022-09-09T04:17:01;9.73;;;8.73;;
33347;SDS011;19707;51.158;17.124;2022-09-09T04:20:04;13.18;;;9.40;;
33347;SDS011;19707;51.158;17.124;2022-09-09T04:23:08;8.40;;;7.55;;
33347;SDS011;19707;51.158;17.124;2022-09-09T04:26:09;10.15;;;7.50;;
33347;SDS011;19707;51.158;17.124;2022-09-09T04:29:11;8.55;;;7.75;;
33347;SDS011;19707;51.158;17.124;2022-09-09T04:32:12;8.00;;;7.17;;
33347;SDS011;19707;51.158;17.124;2022-09-09T04:35:14;10.82;;;8.55;;
33347;SDS011;19707;51.158;17.124;2022-09-09T04:38:16;11.22;;;8.40;;
33347;SDS011;19707;51.158;17.124;2022-09-09T04:41:18;7.53;;;6.90;;
33347;SDS011;19707;51.158;17.124;2022-09-09T04:44:19;8.10;;;6.70;;
33347;SDS011;19707;51.158;17.124;2022-09-09T04:47:21;9.55;;;8.23;;
33347;SDS011;19707;51.158;17.124;2022-09-09T04:50:22;11.22;;;7.37;;
33347;SDS011;19707;51.158;17.124;2022-09-09T04:53:23;12.40;;;8.35;;
33347;SDS011;19707;51.158;17.124;2022-09-09T04:56:25;8.45;;;7.65;;
33347;SDS011;19707;51.158;17.124;2022-09-09T04:59:29;12.47;;;9.85;;
33347;SDS011;19707;51.158;17.124;2022-09-09T05:02:31;11.12;;;9.28;;
33347;SDS011;19707;51.158;17.124;2022-09-09T05:05:33;10.58;;;8.63;;
33347;SDS011;19707;51.158;17.124;2022-09-09T05:08:38;10.35;;;9.38;;
33347;SDS011;19707;51.158;17.124;2022-09-09T05:11:40;11.55;;;10.38;;
33347;SDS011;19707;51.158;17.124;2022-09-09T05:14:43;12.03;;;10.88;;
33347;SDS011;19707;51.158;17.124;2022-09-09T05:17:45;12.85;;;10.58;;
33347;SDS011;19707;51.158;17.124;2022-09-09T05:20:48;11.93;;;10.70;;
33347;SDS011;19707;51.158;17.124;2022-09-09T05:23:51;12.63;;;10.98;;
33347;SDS011;19707;51.158;17.124;2022-09-09T05:26:52;14.98;;;11.88;;
33347;SDS011;19707;51.158;17.124;2022-09-09T05:29:54;14.35;;;11.97;;
33347;SDS011;19707;51.158;17.124;2022-09-09T05:32:55;12.30;;;11.12;;
33347;SDS011;19707;51.158;17.124;2022-09-09T05:36:01;14.47;;;12.93;;
33347;SDS011;19707;51.158;17.124;2022-09-09T05:39:06;18.75;;;14.40;;
33347;SDS011;19707;51.158;17.124;2022-09-09T05:42:07;14.90;;;13.08;;
33347;SDS011;19707;51.158;17.124;2022-09-09T05:45:09;17.98;;;13.72;;
33347;SDS011;19707;51.158;17.124;2022-09-09T05:48:11;16.93;;;14.58;;
33347;SDS011;19707;51.158;17.124;2022-09-09T05:51:13;15.78;;;14.13;;
33347;SDS011;19707;51.158;17.124;2022-09-09T05:54:17;18.02;;;14.85;;
33347;SDS011;19707;51.158;17.124;2022-09-09T05:57:19;15.93;;;14.33;;
33347;SDS011;19707;51.158;17.124;2022-09-09T06:00:21;17.60;;;14.25;;
33347;SDS011;19707;51.158;17.124;2022-09-09T06:03:23;21.10;;;14.90;;
33347;SDS011;19707;51.158;17.124;2022-09-09T06:06:30;15.80;;;14.30;;
33347;SDS011;19707;51.158;17.124;2022-09-09T06:09:32;17.87;;;15.45;;
33347;SDS011;19707;51.158;17.124;2022-09-09T06:12:33;16.57;;;14.75;;
33347;SDS011;19707;51.158;17.124;2022-09-09T06:15:35;25.70;;;16.30;;
33347;SDS011;19707;51.158;17.124;2022-09-09T06:18:36;18.65;;;15.85;;
33347;SDS011;19707;51.158;17.124;2022-09-09T06:21:38;16.60;;;14.90;;
33347;SDS011;19707;51.158;17.124;2022-09-09T06:24:40;21.30;;;15.83;;
33347;SDS011;19707;51.158;17.124;2022-09-09T06:27:42;18.45;;;14.45;;
33347;SDS011;19707;51.158;17.124;2022-09-09T06:30:43;17.42;;;15.38;;
33347;SDS011;19707;51.158;17.124;2022-09-09T06:33:45;17.10;;;15.45;;
33347;SDS011;19707;51.158;17.124;2022-09-09T06:36:47;17.42;;;14.55;;
33347;SDS011;19707;51.158;17.124;2022-09-09T06:39:48;19.00;;;15.80;;
33347;SDS011;19707;51.158;17.124;2022-09-09T06:42:50;19.87;;;16.48;;
33347;SDS011;19707;51.158;17.124;2022-09-09T06:46:02;18.32;;;15.55;;
33347;SDS011;19707;51.158;17.124;2022-09-09T06:49:19;17.50;;;15.18;;
33347;SDS011;19707;51.158;17.124;2022-09-09T06:52:22;17.87;;;16.07;;
33347;SDS011;19707;51.158;17.124;2022-09-09T06:55:25;16.73;;;14.98;;
33347;SDS011;19707;51.158;17.124;2022-09-09T06:58:26;18.02;;;14.53;;
33347;SDS011;19707;51.158;17.124;2022-09-09T07:01:28;17.52;;;13.00;;
33347;SDS011;19707;51.158;17.124;2022-09-09T07:04:32;18.32;;;13.48;;
33347;SDS011;19707;51.158;17.124;2022-09-09T07:07:34;16.55;;;12.93;;
33347;SDS011;19707;51.158;17.124;2022-09-09T07:10:35;14.35;;;12.90;;
33347;SDS011;19707;51.158;17.124;2022-09-09T07:13:37;12.63;;;11.38;;
33347;SDS011;19707;51.158;17.124;2022-09-09T07:16:38;14.95;;;11.03;;
33347;SDS011;19707;51.158;17.124;2022-09-09T07:19:43;14.78;;;9.40;;
33347;SDS011;19707;51.158;17.124;2022-09-09T07:22:45;12.88;;;11.30;;
33347;SDS011;19707;51.158;17.124;2022-09-09T07:25:46;9.40;;;8.45;;
33347;SDS011;19707;51.158;17.124;2022-09-09T07:28:48;11.63;;;8.33;;
33347;SDS011;19707;51.158;17.124;2022-09-09T07:31:50;8.18;;;7.28;;
33347;SDS011;19707;51.158;17.124;2022-09-09T07:34:52;7.85;;;7.15;;
33347;SDS011;19707;51.158;17.124;2022-09-09T07:37:53;7.25;;;6.65;;
33347;SDS011;19707;51.158;17.124;2022-09-09T07:41:02;8.58;;;6.20;;
33347;SDS011;19707;51.158;17.124;2022-09-09T07:44:13;8.15;;;4.90;;
33347;SDS011;19707;51.158;17.124;2022-09-09T07:47:23;6.58;;;4.78;;
33347;SDS011;19707;51.158;17.124;2022-09-09T07:50:25;11.25;;;4.55;;
33347;SDS011;19707;51.158;17.124;2022-09-09T07:53:27;8.03;;;4.28;;
33347;SDS011;19707;51.158;17.124;2022-09-09T07:56:28;5.22;;;4.47;;
33347;SDS011;19707;51.158;17.124;2022-09-09T07:59:31;6.65;;;3.90;;
33347;SDS011;19707;51.158;17.124;2022-09-09T08:02:34;4.22;;;3.83;;
33347;SDS011;19707;51.158;17.124;2022-09-09T08:05:35;8.33;;;4.40;;
33347;SDS011;19707;51.158;17.124;2022-09-09T08:08:37;6.08;;;3.85;;
33347;SDS011;19707;51.158;17.124;2022-09-09T08:11:39;6.12;;;4.20;;
33347;SDS011;19707;51.158;17.124;2022-09-09T08:14:41;7.30;;;3.20;;
33347;SDS011;19707;51.158;17.124;2022-09-09T08:17:43;7.37;;;3.37;;
33347;SDS011;19707;51.158;17.124;2022-09-09T08:20:45;6.75;;;3.45;;
33347;SDS011;19707;51.158;17.124;2022-09-09T08:23:46;5.95;;;3.62;;
33347;SDS011;19707;51.158;17.124;2022-09-09T08:26:50;4.45;;;2.40;;
33347;SDS011;19707;51.158;17.124;2022-09-09T08:29:51;5.83;;;2.55;;
33347;SDS011;19707;51.158;17.124;2022-09-09T08:32:53;8.30;;;2.83;;
33347;SDS011;19707;51.158;17.124;2022-09-09T08:35:55;4.17;;;2.35;;
33347;SDS011;19707;51.158;17.124;2022-09-09T08:38:56;3.47;;;1.98;;
33347;SDS011;19707;51.158;17.124;2022-09-09T08:45:35;2.30;;;1.85;;
33347;SDS011;19707;51.158;17.124;2022-09-09T08:48:58;3.02;;;2.12;;
33347;SDS011;19707;51.158;17.124;2022-09-09T08:52:03;7.30;;;2.42;;
33347;SDS011;19707;51.158;17.124;2022-09-09T08:58:31;6.92;;;2.15;;
33347;SDS011;19707;51.158;17.124;2022-09-09T09:04:58;5.37;;;1.85;;
33347;SDS011;19707;51.158;17.124;2022-09-09T09:08:17;5.17;;;1.98;;
33347;SDS011;19707;51.158;17.124;2022-09-09T09:11:35;3.05;;;1.82;;
33347;SDS011;19707;51.158;17.124;2022-09-09T09:17:44;4.87;;;2.20;;
33347;SDS011;19707;51.158;17.124;2022-09-09T09:20:53;4.58;;;2.20;;
33347;SDS011;19707;51.158;17.124;2022-09-09T09:23:58;5.58;;;2.17;;
33347;SDS011;19707;51.158;17.124;2022-09-09T09:27:06;8.13;;;2.47;;
33347;SDS011;19707;51.158;17.124;2022-09-09T09:30:23;4.15;;;2.10;;
33347;SDS011;19707;51.158;17.124;2022-09-09T09:33:29;2.87;;;2.12;;
33347;SDS011;19707;51.158;17.124;2022-09-09T09:36:34;2.80;;;1.72;;
33347;SDS011;19707;51.158;17.124;2022-09-09T09:39:48;5.00;;;2.10;;
33347;SDS011;19707;51.158;17.124;2022-09-09T09:42:57;6.33;;;2.00;;
33347;SDS011;19707;51.158;17.124;2022-09-09T09:46:03;3.05;;;1.90;;
33347;SDS011;19707;51.158;17.124;2022-09-09T09:49:05;3.65;;;1.80;;
33347;SDS011;19707;51.158;17.124;2022-09-09T09:52:12;2.33;;;1.90;;
33347;SDS011;19707;51.158;17.124;2022-09-09T09:55:14;3.65;;;1.60;;
33347;SDS011;19707;51.158;17.124;2022-09-09T09:58:15;4.12;;;1.90;;
33347;SDS011;19707;51.158;17.124;2022-09-09T10:01:20;7.28;;;1.80;;
33347;SDS011;19707;51.158;17.124;2022-09-09T10:04:34;2.77;;;1.90;;
33347;SDS011;19707;51.158;17.124;2022-09-09T10:07:35;4.30;;;2.00;;
33347;SDS011;19707;51.158;17.124;2022-09-09T10:17:24;4.17;;;1.92;;
33347;SDS011;19707;51.158;17.124;2022-09-09T10:27:52;4.87;;;1.60;;
33347;SDS011;19707;51.158;17.124;2022-09-09T10:31:14;1.85;;;1.37;;
33347;SDS011;19707;51.158;17.124;2022-09-09T10:38:20;6.42;;;1.65;;
33347;SDS011;19707;51.158;17.124;2022-09-09T10:41:40;4.40;;;1.50;;
33347;SDS011;19707;51.158;17.124;2022-09-09T10:45:01;5.28;;;2.05;;
33347;SDS011;19707;51.158;17.124;2022-09-09T10:48:31;4.92;;;1.82;;
33347;SDS011;19707;51.158;17.124;2022-09-09T10:58:27;2.42;;;1.25;;
33347;SDS011;19707;51.158;17.124;2022-09-09T11:01:36;4.62;;;1.37;;
33347;SDS011;19707;51.158;17.124;2022-09-09T11:04:57;3.87;;;1.30;;
33347;SDS011;19707;51.158;17.124;2022-09-09T11:08:20;1.15;;;1.00;;
33347;SDS011;19707;51.158;17.124;2022-09-09T11:11:42;3.95;;;1.55;;
33347;SDS011;19707;51.158;17.124;2022-09-09T11:15:01;1.72;;;1.40;;
33347;SDS011;19707;51.158;17.124;2022-09-09T11:18:05;5.70;;;1.45;;
33347;SDS011;19707;51.158;17.124;2022-09-09T11:21:23;6.00;;;1.40;;
33347;SDS011;19707;51.158;17.124;2022-09-09T11:24:39;4.05;;;1.60;;
33347;SDS011;19707;51.158;17.124;2022-09-09T11:31:38;3.20;;;1.50;;
33347;SDS011;19707;51.158;17.124;2022-09-09T11:38:15;1.75;;;1.20;;
33347;SDS011;19707;51.158;17.124;2022-09-09T11:41:32;3.02;;;1.75;;
33347;SDS011;19707;51.158;17.124;2022-09-09T11:44:36;4.97;;;1.40;;
33347;SDS011;19707;51.158;17.124;2022-09-09T11:47:37;3.87;;;1.27;;
33347;SDS011;19707;51.158;17.124;2022-09-09T11:50:38;3.05;;;1.30;;
33347;SDS011;19707;51.158;17.124;2022-09-09T11:53:53;3.75;;;1.42;;
33347;SDS011;19707;51.158;17.124;2022-09-09T11:57:01;4.05;;;1.45;;
33347;SDS011;19707;51.158;17.124;2022-09-09T12:00:07;5.63;;;1.37;;
33347;SDS011;19707;51.158;17.124;2022-09-09T12:06:43;1.95;;;1.42;;
33347;SDS011;19707;51.158;17.124;2022-09-09T12:10:21;4.72;;;1.35;;
33347;SDS011;19707;51.158;17.124;2022-09-09T12:13:31;4.05;;;1.60;;
33347;SDS011;19707;51.158;17.124;2022-09-09T12:16:35;5.85;;;1.37;;
33347;SDS011;19707;51.158;17.124;2022-09-09T12:19:39;3.15;;;1.37;;
33347;SDS011;19707;51.158;17.124;2022-09-09T12:22:43;3.27;;;1.50;;
33347;SDS011;19707;51.158;17.124;2022-09-09T12:33:16;2.40;;;1.30;;
33347;SDS011;19707;51.158;17.124;2022-09-09T12:39:29;4.58;;;2.15;;
33347;SDS011;19707;51.158;17.124;2022-09-09T12:42:39;6.35;;;1.75;;
33347;SDS011;19707;51.158;17.124;2022-09-09T12:45:41;1.37;;;1.05;;
33347;SDS011;19707;51.158;17.124;2022-09-09T12:48:42;4.15;;;1.75;;
33347;SDS011;19707;51.158;17.124;2022-09-09T12:51:46;5.42;;;1.35;;
33347;SDS011;19707;51.158;17.124;2022-09-09T12:54:48;3.10;;;1.30;;
33347;SDS011;19707;51.158;17.124;2022-09-09T12:57:51;2.50;;;1.27;;
33347;SDS011;19707;51.158;17.124;2022-09-09T13:00:56;3.98;;;1.60;;
33347;SDS011;19707;51.158;17.124;2022-09-09T13:03:57;5.12;;;1.40;;
33347;SDS011;19707;51.158;17.124;2022-09-09T13:07:06;5.20;;;1.47;;
33347;SDS011;19707;51.158;17.124;2022-09-09T13:10:11;2.47;;;1.17;;
33347;SDS011;19707;51.158;17.124;2022-09-09T13:13:15;2.20;;;1.47;;
33347;SDS011;19707;51.158;17.124;2022-09-09T13:16:28;3.75;;;1.65;;
33347;SDS011;19707;51.158;17.124;2022-09-09T13:19:38;2.50;;;1.27;;
33347;SDS011;19707;51.158;17.124;2022-09-09T13:22:40;3.05;;;1.30;;
33347;SDS011;19707;51.158;17.124;2022-09-09T13:25:41;3.87;;;1.62;;
33347;SDS011;19707;51.158;17.124;2022-09-09T13:32:18;1.50;;;0.85;;
33347;SDS011;19707;51.158;17.124;2022-09-09T13:35:23;1.55;;;1.17;;
33347;SDS011;19707;51.158;17.124;2022-09-09T13:38:26;1.92;;;1.30;;
33347;SDS011;19707;51.158;17.124;2022-09-09T13:41:33;2.75;;;1.40;;
33347;SDS011;19707;51.158;17.124;2022-09-09T13:44:45;5.03;;;1.17;;
33347;SDS011;19707;51.158;17.124;2022-09-09T13:47:47;2.08;;;1.40;;
33347;SDS011;19707;51.158;17.124;2022-09-09T13:50:55;3.33;;;1.42;;
33347;SDS011;19707;51.158;17.124;2022-09-09T13:53:59;2.58;;;1.42;;
33347;SDS011;19707;51.158;17.124;2022-09-09T13:57:01;2.12;;;1.75;;
33347;SDS011;19707;51.158;17.124;2022-09-09T14:00:02;5.12;;;1.52;;
33347;SDS011;19707;51.158;17.124;2022-09-09T14:03:06;1.77;;;1.22;;
33347;SDS011;19707;51.158;17.124;2022-09-09T14:06:09;2.22;;;1.35;;
33347;SDS011;19707;51.158;17.124;2022-09-09T14:09:12;8.08;;;1.52;;
33347;SDS011;19707;51.158;17.124;2022-09-09T14:12:15;1.50;;;1.30;;
33347;SDS011;19707;51.158;17.124;2022-09-09T14:15:18;3.40;;;1.30;;
33347;SDS011;19707;51.158;17.124;2022-09-09T14:18:20;1.37;;;1.25;;
33347;SDS011;19707;51.158;17.124;2022-09-09T14:21:23;3.62;;;1.60;;
33347;SDS011;19707;51.158;17.124;2022-09-09T14:24:26;2.98;;;1.30;;
33347;SDS011;19707;51.158;17.124;2022-09-09T14:27:28;2.75;;;2.00;;
33347;SDS011;19707;51.158;17.124;2022-09-09T14:30:32;4.40;;;2.15;;
33347;SDS011;19707;51.158;17.124;2022-09-09T14:33:34;4.22;;;2.15;;
33347;SDS011;19707;51.158;17.124;2022-09-09T14:36:39;2.50;;;1.70;;
33347;SDS011;19707;51.158;17.124;2022-09-09T14:39:42;3.20;;;1.70;;
33347;SDS011;19707;51.158;17.124;2022-09-09T14:42:44;1.70;;;1.57;;
33347;SDS011;19707;51.158;17.124;2022-09-09T14:45:45;3.58;;;1.60;;
33347;SDS011;19707;51.158;17.124;2022-09-09T14:48:48;2.05;;;1.20;;
33347;SDS011;19707;51.158;17.124;2022-09-09T14:51:50;5.55;;;1.90;;
33347;SDS011;19707;51.158;17.124;2022-09-09T14:54:51;3.55;;;1.98;;
33347;SDS011;19707;51.158;17.124;2022-09-09T14:57:53;1.40;;;1.30;;
33347;SDS011;19707;51.158;17.124;2022-09-09T15:00:54;3.15;;;1.37;;
33347;SDS011;19707;51.158;17.124;2022-09-09T15:03:56;1.72;;;1.30;;
33347;SDS011;19707;51.158;17.124;2022-09-09T15:07:01;5.55;;;1.77;;
33347;SDS011;19707;51.158;17.124;2022-09-09T15:10:03;2.55;;;1.35;;
33347;SDS011;19707;51.158;17.124;2022-09-09T15:13:07;3.62;;;1.75;;
33347;SDS011;19707;51.158;17.124;2022-09-09T15:16:10;1.98;;;1.45;;
33347;SDS011;19707;51.158;17.124;2022-09-09T15:19:15;3.22;;;1.25;;
33347;SDS011;19707;51.158;17.124;2022-09-09T15:22:16;1.80;;;1.30;;
33347;SDS011;19707;51.158;17.124;2022-09-09T15:25:18;2.40;;;2.20;;
33347;SDS011;19707;51.158;17.124;2022-09-09T15:28:20;4.08;;;1.85;;
33347;SDS011;19707;51.158;17.124;2022-09-09T15:31:23;2.90;;;1.40;;
33347;SDS011;19707;51.158;17.124;2022-09-09T15:34:27;3.00;;;1.60;;
33347;SDS011;19707;51.158;17.124;2022-09-09T15:37:28;6.75;;;4.35;;
33347;SDS011;19707;51.158;17.124;2022-09-09T15:40:30;4.67;;;3.17;;
33347;SDS011;19707;51.158;17.124;2022-09-09T15:43:34;2.58;;;1.98;;
33347;SDS011;19707;51.158;17.124;2022-09-09T15:46:37;3.62;;;2.10;;
33347;SDS011;19707;51.158;17.124;2022-09-09T15:49:44;2.67;;;1.47;;
33347;SDS011;19707;51.158;17.124;2022-09-09T15:52:45;2.70;;;1.57;;
33347;SDS011;19707;51.158;17.124;2022-09-09T15:55:46;2.87;;;1.72;;
33347;SDS011;19707;51.158;17.124;2022-09-09T15:58:47;4.83;;;3.10;;
33347;SDS011;19707;51.158;17.124;2022-09-09T16:01:49;2.52;;;1.80;;
33347;SDS011;19707;51.158;17.124;2022-09-09T16:04:53;2.95;;;1.90;;
33347;SDS011;19707;51.158;17.124;2022-09-09T16:07:54;4.78;;;2.10;;
33347;SDS011;19707;51.158;17.124;2022-09-09T16:10:56;8.60;;;2.75;;
33347;SDS011;19707;51.158;17.124;2022-09-09T16:13:59;5.12;;;2.30;;
33347;SDS011;19707;51.158;17.124;2022-09-09T16:17:03;2.95;;;2.05;;
33347;SDS011;19707;51.158;17.124;2022-09-09T16:20:06;5.00;;;1.98;;
33347;SDS011;19707;51.158;17.124;2022-09-09T16:23:09;2.02;;;1.52;;
33347;SDS011;19707;51.158;17.124;2022-09-09T16:26:11;4.37;;;3.08;;
33347;SDS011;19707;51.158;17.124;2022-09-09T16:29:15;2.65;;;1.80;;
33347;SDS011;19707;51.158;17.124;2022-09-09T16:32:18;2.67;;;2.37;;
33347;SDS011;19707;51.158;17.124;2022-09-09T16:35:20;4.15;;;2.27;;
33347;SDS011;19707;51.158;17.124;2022-09-09T16:38:22;5.95;;;2.17;;
33347;SDS011;19707;51.158;17.124;2022-09-09T16:41:25;2.65;;;1.92;;
33347;SDS011;19707;51.158;17.124;2022-09-09T16:44:28;6.08;;;1.70;;
33347;SDS011;19707;51.158;17.124;2022-09-09T16:47:30;5.12;;;2.20;;
33347;SDS011;19707;51.158;17.124;2022-09-09T16:50:32;6.35;;;2.33;;
33347;SDS011;19707;51.158;17.124;2022-09-09T16:53:33;2.47;;;2.10;;
33347;SDS011;19707;51.158;17.124;2022-09-09T16:56:40;3.70;;;2.87;;
33347;SDS011;19707;51.158;17.124;2022-09-09T16:59:45;5.87;;;2.20;;
33347;SDS011;19707;51.158;17.124;2022-09-09T17:02:47;8.25;;;2.42;;
33347;SDS011;19707;51.158;17.124;2022-09-09T17:05:49;3.92;;;2.45;;
33347;SDS011;19707;51.158;17.124;2022-09-09T17:08:54;5.95;;;2.70;;
33347;SDS011;19707;51.158;17.124;2022-09-09T17:12:02;4.22;;;2.42;;
33347;SDS011;19707;51.158;17.124;2022-09-09T17:15:03;4.20;;;2.50;;
33347;SDS011;19707;51.158;17.124;2022-09-09T17:18:07;9.58;;;2.20;;
33347;SDS011;19707;51.158;17.124;2022-09-09T17:21:13;3.87;;;2.25;;
33347;SDS011;19707;51.158;17.124;2022-09-09T17:24:14;8.35;;;3.05;;
33347;SDS011;19707;51.158;17.124;2022-09-09T17:27:16;5.55;;;2.85;;
33347;SDS011;19707;51.158;17.124;2022-09-09T17:30:18;12.65;;;4.95;;
33347;SDS011;19707;51.158;17.124;2022-09-09T17:33:20;8.40;;;4.62;;
33347;SDS011;19707;51.158;17.124;2022-09-09T17:39:28;5.20;;;2.83;;
33347;SDS011;19707;51.158;17.124;2022-09-09T17:42:29;2.70;;;2.22;;
33347;SDS011;19707;51.158;17.124;2022-09-09T17:45:33;6.80;;;2.40;;
33347;SDS011;19707;51.158;17.124;2022-09-09T17:48:35;6.00;;;2.42;;
33347;SDS011;19707;51.158;17.124;2022-09-09T17:51:37;6.55;;;3.92;;
33347;SDS011;19707;51.158;17.124;2022-09-09T17:54:42;6.03;;;2.85;;
33347;SDS011;19707;51.158;17.124;2022-09-09T17:57:43;3.40;;;2.60;;
33347;SDS011;19707;51.158;17.124;2022-09-09T18:00:46;3.52;;;2.30;;
33347;SDS011;19707;51.158;17.124;2022-09-09T18:03:49;5.42;;;2.70;;
33347;SDS011;19707;51.158;17.124;2022-09-09T18:06:53;7.85;;;4.95;;
33347;SDS011;19707;51.158;17.124;2022-09-09T18:09:55;5.67;;;3.85;;
33347;SDS011;19707;51.158;17.124;2022-09-09T18:12:56;4.55;;;3.27;;
33347;SDS011;19707;51.158;17.124;2022-09-09T18:15:58;6.75;;;2.80;;
33347;SDS011;19707;51.158;17.124;2022-09-09T18:18:59;7.50;;;6.05;;
33347;SDS011;19707;51.158;17.124;2022-09-09T18:22:03;5.53;;;3.15;;
33347;SDS011;19707;51.158;17.124;2022-09-09T18:25:06;4.37;;;3.50;;
33347;SDS011;19707;51.158;17.124;2022-09-09T18:28:08;5.95;;;3.10;;
33347;SDS011;19707;51.158;17.124;2022-09-09T18:31:12;6.75;;;3.67;;
33347;SDS011;19707;51.158;17.124;2022-09-09T18:34:16;9.15;;;3.47;;
33347;SDS011;19707;51.158;17.124;2022-09-09T18:37:19;6.53;;;2.72;;
33347;SDS011;19707;51.158;17.124;2022-09-09T18:40:21;4.00;;;2.55;;
33347;SDS011;19707;51.158;17.124;2022-09-09T18:43:23;4.33;;;2.70;;
33347;SDS011;19707;51.158;17.124;2022-09-09T18:46:26;4.95;;;3.00;;
33347;SDS011;19707;51.158;17.124;2022-09-09T18:49:29;7.17;;;3.22;;
33347;SDS011;19707;51.158;17.124;2022-09-09T18:52:31;3.85;;;2.98;;
33347;SDS011;19707;51.158;17.124;2022-09-09T18:55:33;7.92;;;3.33;;
33347;SDS011;19707;51.158;17.124;2022-09-09T18:58:34;7.42;;;2.85;;
33347;SDS011;19707;51.158;17.124;2022-09-09T19:01:36;7.83;;;3.42;;
33347;SDS011;19707;51.158;17.124;2022-09-09T19:04:38;8.75;;;4.28;;
33347;SDS011;19707;51.158;17.124;2022-09-09T19:07:39;11.80;;;3.65;;
33347;SDS011;19707;51.158;17.124;2022-09-09T19:10:41;9.53;;;4.03;;
33347;SDS011;19707;51.158;17.124;2022-09-09T19:13:43;4.53;;;3.20;;
33347;SDS011;19707;51.158;17.124;2022-09-09T19:16:47;7.25;;;3.52;;
33347;SDS011;19707;51.158;17.124;2022-09-09T19:19:48;5.87;;;3.65;;
33347;SDS011;19707;51.158;17.124;2022-09-09T19:22:51;5.75;;;3.37;;
33347;SDS011;19707;51.158;17.124;2022-09-09T19:25:52;4.92;;;3.70;;
33347;SDS011;19707;51.158;17.124;2022-09-09T19:28:56;6.92;;;3.80;;
33347;SDS011;19707;51.158;17.124;2022-09-09T19:32:02;4.73;;;3.20;;
33347;SDS011;19707;51.158;17.124;2022-09-09T19:35:06;12.23;;;5.00;;
33347;SDS011;19707;51.158;17.124;2022-09-09T19:38:08;13.15;;;9.73;;
33347;SDS011;19707;51.158;17.124;2022-09-09T19:41:11;22.32;;;14.87;;
33347;SDS011;19707;51.158;17.124;2022-09-09T19:44:17;19.55;;;10.30;;
33347;SDS011;19707;51.158;17.124;2022-09-09T19:47:18;10.13;;;6.85;;